createdAt,value
2023-08-14T00:01:37.200Z,19.63
2023-08-14T00:04:03.896Z,19.66
2023-08-14T00:06:30.291Z,19.72
2023-08-14T00:08:56.645Z,19.81
2023-08-14T00:11:23.010Z,20.05
2023-08-14T00:13:50.519Z,20.01
2023-08-14T00:16:17.384Z,19.98
2023-08-14T00:18:43.800Z,20.00
2023-08-14T00:21:10.171Z,20.10
2023-08-14T00:23:36.520Z,20.21
2023-08-14T00:26:02.899Z,20.42
2023-08-14T00:28:29.272Z,20.56
2023-08-14T00:30:55.640Z,20.56
2023-08-14T00:33:22.060Z,20.42
2023-08-14T00:35:48.385Z,20.23
2023-08-14T00:38:14.737Z,20.25
2023-08-14T00:40:41.082Z,20.28
2023-08-14T00:43:07.501Z,20.27
2023-08-14T00:45:45.155Z,20.20
2023-08-14T00:48:12.471Z,20.16
2023-08-14T00:50:39.066Z,20.11
2023-08-14T00:53:05.568Z,20.12
2023-08-14T00:55:32.198Z,20.23
2023-08-14T00:57:59.042Z,20.20
2023-08-14T01:00:27.425Z,20.11
2023-08-14T01:02:54.137Z,19.26
2023-08-14T01:05:20.733Z,18.88
2023-08-14T01:07:47.072Z,19.45
2023-08-14T01:10:13.523Z,19.84
2023-08-14T01:12:47.050Z,19.71
2023-08-14T01:15:17.258Z,19.71
2023-08-14T01:17:49.420Z,19.67
2023-08-14T01:20:17.658Z,19.61
2023-08-14T01:23:02.852Z,19.62
2023-08-14T01:25:31.691Z,19.77
2023-08-14T01:27:59.318Z,19.62
2023-08-14T01:30:25.859Z,19.54
2023-08-14T01:32:52.657Z,19.55
2023-08-14T01:35:21.025Z,19.54
2023-08-14T01:37:55.635Z,19.49
2023-08-14T01:40:40.833Z,19.42
2023-08-14T01:43:17.508Z,19.35
2023-08-14T01:45:43.858Z,19.15
2023-08-14T01:48:11.028Z,19.36
2023-08-14T01:50:37.799Z,19.40
2023-08-14T01:53:04.384Z,19.23
2023-08-14T01:55:30.866Z,19.29
2023-08-14T01:57:57.248Z,19.13
2023-08-14T02:00:23.683Z,19.23
2023-08-14T02:02:50.386Z,19.11
2023-08-14T02:05:16.831Z,19.08
2023-08-14T02:07:43.810Z,19.17
2023-08-14T02:10:10.304Z,19.10
2023-08-14T02:12:36.682Z,19.11
2023-08-14T02:15:03.436Z,18.94
2023-08-14T02:17:29.921Z,18.90
2023-08-14T02:19:56.367Z,19.11
2023-08-14T02:22:22.730Z,19.07
2023-08-14T02:24:49.116Z,19.22
2023-08-14T02:27:15.471Z,19.17
2023-08-14T02:29:41.813Z,19.09
2023-08-14T02:32:08.173Z,19.05
2023-08-14T02:34:43.376Z,19.07
2023-08-14T02:37:10.174Z,18.89
2023-08-14T02:39:36.526Z,18.98
2023-08-14T02:42:02.938Z,19.03
2023-08-14T02:44:29.326Z,18.77
2023-08-14T02:46:56.151Z,18.79
2023-08-14T02:49:22.569Z,18.76
2023-08-14T02:51:48.897Z,18.77
2023-08-14T02:54:15.352Z,18.62
2023-08-14T02:56:41.806Z,18.74
2023-08-14T02:59:08.141Z,18.62
2023-08-14T03:01:34.581Z,18.54
2023-08-14T03:04:01.099Z,18.56
2023-08-14T03:06:30.869Z,18.58
2023-08-14T03:08:57.509Z,18.57
2023-08-14T03:11:23.851Z,18.68
2023-08-14T03:13:50.827Z,18.72
2023-08-14T03:16:17.272Z,18.58
2023-08-14T03:18:43.890Z,18.61
2023-08-14T03:21:10.649Z,18.60
2023-08-14T03:23:37.131Z,18.53
2023-08-14T03:26:04.594Z,18.28
2023-08-14T03:28:31.413Z,18.46
2023-08-14T03:30:57.841Z,18.49
2023-08-14T03:33:24.213Z,18.51
2023-08-14T03:35:54.715Z,18.28
2023-08-14T03:38:21.548Z,18.45
2023-08-14T03:40:47.934Z,18.39
2023-08-14T03:43:14.282Z,18.49
2023-08-14T03:45:40.685Z,18.34
2023-08-14T03:48:07.297Z,18.29
2023-08-14T03:50:33.689Z,18.31
2023-08-14T03:53:00.128Z,18.35
2023-08-14T03:55:26.519Z,18.39
2023-08-14T03:57:52.853Z,18.48
2023-08-14T04:00:19.203Z,18.53
2023-08-14T04:02:45.583Z,18.60
2023-08-14T04:05:11.992Z,18.49
2023-08-14T04:07:38.375Z,18.58
2023-08-14T05:38:32.568Z,19.78
2023-08-14T05:40:59.263Z,19.84
2023-08-14T05:43:25.715Z,19.91
2023-08-14T05:45:52.176Z,20.04
2023-08-14T05:48:18.705Z,20.11
2023-08-14T05:50:45.069Z,20.05
2023-08-14T05:53:11.501Z,20.06
2023-08-14T05:55:39.282Z,20.40
2023-08-14T05:58:07.223Z,20.39
2023-08-14T06:00:35.006Z,20.60
2023-08-14T06:03:01.821Z,20.54
2023-08-14T06:05:28.479Z,20.68
2023-08-14T06:07:57.342Z,20.73
2023-08-14T06:10:24.054Z,20.65
2023-08-14T06:12:51.107Z,20.80
2023-08-14T06:15:19.802Z,21.00
2023-08-14T06:17:46.534Z,21.06
2023-08-14T06:20:12.885Z,21.14
2023-08-14T06:22:44.853Z,21.10
2023-08-14T06:25:12.926Z,21.40
2023-08-14T06:27:39.755Z,21.46
2023-08-14T06:30:09.618Z,21.17
2023-08-14T06:32:45.510Z,21.19
2023-08-14T06:35:12.068Z,21.62
2023-08-14T06:37:42.936Z,21.40
2023-08-14T06:40:10.184Z,21.47
2023-08-14T06:42:48.331Z,21.71
2023-08-14T06:45:19.668Z,21.82
2023-08-14T06:47:46.374Z,21.29
2023-08-14T06:50:14.220Z,21.69
2023-08-14T06:52:46.015Z,21.68
2023-08-14T06:55:12.486Z,21.93
2023-08-14T06:57:41.309Z,22.00
2023-08-14T07:00:15.544Z,22.16
2023-08-14T07:02:47.942Z,21.77
2023-08-14T07:05:17.936Z,22.23
2023-08-14T07:10:48.453Z,22.49
2023-08-14T07:13:15.005Z,22.20
2023-08-14T07:15:48.921Z,22.60
2023-08-14T07:18:20.924Z,22.64
2023-08-14T07:20:51.072Z,22.68
2023-08-14T07:23:22.244Z,23.02
2023-08-14T07:25:54.170Z,23.29
2023-08-14T07:28:31.693Z,23.17
2023-08-14T07:31:00.908Z,23.55
2023-08-14T07:33:27.386Z,24.13
2023-08-14T07:35:56.216Z,24.03
2023-08-14T07:38:28.257Z,24.49
2023-08-14T07:40:59.742Z,24.89
2023-08-14T07:43:26.644Z,25.28
2023-08-14T07:45:55.695Z,24.98
2023-08-14T07:48:22.238Z,25.10
2023-08-14T07:50:58.032Z,25.08
2023-08-14T07:53:24.635Z,25.74
2023-08-14T07:55:57.204Z,25.72
2023-08-14T07:58:36.552Z,26.35
2023-08-14T08:01:03.216Z,26.22
2023-08-14T08:03:35.695Z,26.28
2023-08-14T08:06:06.933Z,26.39
2023-08-14T08:08:33.971Z,26.94
2023-08-14T08:11:29.988Z,27.65
2023-08-14T08:14:13.629Z,26.85
2023-08-14T08:16:43.539Z,26.79
2023-08-14T08:19:15.725Z,27.01
2023-08-14T08:21:45.444Z,26.63
2023-08-14T08:24:17.459Z,26.67
2023-08-14T08:26:54.786Z,26.88
2023-08-14T08:29:30.020Z,26.66
2023-08-14T08:31:59.850Z,27.14
2023-08-14T08:34:34.959Z,27.05
2023-08-14T08:37:06.889Z,27.17
2023-08-14T08:42:22.003Z,28.08
2023-08-14T08:48:23.954Z,27.65
2023-08-14T08:51:19.877Z,27.79
2023-08-14T08:54:07.735Z,27.23
2023-08-14T08:56:47.077Z,28.29
2023-08-14T08:59:24.650Z,28.21
2023-08-14T09:02:19.790Z,27.53
2023-08-14T09:05:00.942Z,27.53
2023-08-14T09:07:54.917Z,27.86
2023-08-14T09:10:24.926Z,27.96
2023-08-14T09:12:59.523Z,28.32
2023-08-14T09:18:11.107Z,27.92
2023-08-14T09:20:40.241Z,28.34
2023-08-14T09:23:47.286Z,28.06
2023-08-14T09:26:33.533Z,28.85
2023-08-14T09:29:00.522Z,28.58
2023-08-14T09:31:32.309Z,27.68
2023-08-14T09:34:40.253Z,27.79
2023-08-14T09:40:20.040Z,28.42
2023-08-14T09:42:53.790Z,27.69
2023-08-14T09:45:45.406Z,28.16
2023-08-14T09:48:15.304Z,28.27
2023-08-14T09:50:59.634Z,28.57
2023-08-14T09:53:31.927Z,28.99
2023-08-14T09:56:17.219Z,28.90
2023-08-14T09:58:44.025Z,28.71
2023-08-14T10:01:18.126Z,29.07
2023-08-14T10:03:58.301Z,28.62
2023-08-14T10:06:28.686Z,28.26
2023-08-14T10:09:03.666Z,28.82
2023-08-14T10:11:38.115Z,29.06
2023-08-14T10:14:10.799Z,29.38
2023-08-14T10:16:39.795Z,28.93
2023-08-14T10:19:10.714Z,28.43
2023-08-14T10:21:39.206Z,28.25
2023-08-14T10:24:06.180Z,28.59
2023-08-14T10:26:34.168Z,28.37
2023-08-14T10:29:01.198Z,29.14
2023-08-14T10:31:28.364Z,29.77
2023-08-14T10:34:01.141Z,29.47
2023-08-14T10:36:29.069Z,30.35
2023-08-14T10:39:03.147Z,30.32
2023-08-14T10:41:33.675Z,29.99
2023-08-14T10:44:08.223Z,29.76
2023-08-14T10:46:53.116Z,30.43
2023-08-14T10:49:22.052Z,29.92
2023-08-14T10:51:49.131Z,30.11
2023-08-14T10:54:40.631Z,30.03
2023-08-14T10:57:49.942Z,29.84
2023-08-14T11:00:48.733Z,30.08
2023-08-14T11:03:26.066Z,30.93
2023-08-14T11:05:55.366Z,30.42
2023-08-14T11:08:26.182Z,30.82
2023-08-14T11:16:04.280Z,30.04
2023-08-14T11:18:30.852Z,31.04
2023-08-14T11:21:10.545Z,31.23
2023-08-14T11:23:47.897Z,30.86
2023-08-14T11:26:17.581Z,31.10
2023-08-14T11:28:49.636Z,31.40
2023-08-14T11:31:21.567Z,30.55
2023-08-14T11:33:54.365Z,31.22
2023-08-14T11:54:21.170Z,30.38
2023-08-14T11:57:02.249Z,32.56
2023-08-14T11:59:44.847Z,32.87
2023-08-14T12:02:35.351Z,32.86
2023-08-14T12:05:30.400Z,33.01
2023-08-14T12:08:11.538Z,32.85
2023-08-14T12:11:35.497Z,32.33
2023-08-14T12:14:26.984Z,30.29
2023-08-14T12:17:36.483Z,31.31
2023-08-14T12:20:11.648Z,32.14
2023-08-14T12:22:55.441Z,33.30
2023-08-14T12:25:28.895Z,29.76
2023-08-14T12:27:55.241Z,29.44
2023-08-14T12:30:21.605Z,30.06
2023-08-14T12:32:48.644Z,31.18
2023-08-14T12:35:16.329Z,31.81
2023-08-14T12:37:42.728Z,32.46
2023-08-14T12:40:10.298Z,33.12
2023-08-14T12:42:37.713Z,33.46
2023-08-14T12:45:05.418Z,33.73
2023-08-14T12:47:32.607Z,32.96
2023-08-14T12:49:59.177Z,32.93
2023-08-14T12:52:27.470Z,31.61
2023-08-14T12:57:34.508Z,32.65
2023-08-14T13:00:00.978Z,34.00
2023-08-14T13:04:57.795Z,31.78
2023-08-14T13:07:30.553Z,31.78
2023-08-14T13:09:57.348Z,32.04
2023-08-14T13:12:23.914Z,32.75
2023-08-14T13:14:50.447Z,33.55
2023-08-14T13:17:17.421Z,31.82
2023-08-14T13:19:44.073Z,32.20
2023-08-14T13:22:10.525Z,33.56
2023-08-14T13:24:36.922Z,33.37
2023-08-14T13:29:34.886Z,33.92
2023-08-14T13:32:02.127Z,32.59
2023-08-14T13:34:28.567Z,32.94
2023-08-14T13:36:54.938Z,32.19
2023-08-14T13:39:21.349Z,32.48
2023-08-14T13:41:47.715Z,32.44
2023-08-14T13:44:14.217Z,33.15
2023-08-14T13:46:42.027Z,33.80
2023-08-14T13:49:10.794Z,34.14
2023-08-14T13:51:37.172Z,33.18
2023-08-14T13:54:04.490Z,31.77
2023-08-14T13:56:30.969Z,31.43
2023-08-14T13:58:59.167Z,30.36
2023-08-14T14:01:26.592Z,29.68
2023-08-14T14:03:54.308Z,29.58
2023-08-14T14:06:20.661Z,29.84
2023-08-14T14:08:48.041Z,30.37
2023-08-14T14:11:14.472Z,30.04
2023-08-14T14:13:40.908Z,30.33
2023-08-14T14:16:07.415Z,30.36
2023-08-14T14:18:33.816Z,30.55
2023-08-14T14:21:00.167Z,30.57
2023-08-14T14:23:26.507Z,30.15
2023-08-14T14:25:52.850Z,30.53
2023-08-14T14:28:19.224Z,30.76
2023-08-14T14:30:45.617Z,30.79
2023-08-14T14:33:12.063Z,30.89
2023-08-14T14:35:38.448Z,31.06
2023-08-14T14:38:04.899Z,30.64
2023-08-14T14:40:32.331Z,29.91
2023-08-14T14:42:58.973Z,29.69
2023-08-14T14:45:34.862Z,29.06
2023-08-14T14:48:02.454Z,29.94
2023-08-14T14:50:30.285Z,29.49
2023-08-14T14:52:57.681Z,29.48
2023-08-14T14:55:24.213Z,29.56
2023-08-14T14:57:50.627Z,29.13
2023-08-14T15:00:17.440Z,29.71
2023-08-14T15:02:43.936Z,30.20
2023-08-14T15:05:18.058Z,30.03
2023-08-14T15:07:53.888Z,30.29
2023-08-14T15:10:20.344Z,29.84
2023-08-14T15:12:46.739Z,29.89
2023-08-14T15:15:13.190Z,29.85
2023-08-14T15:17:44.438Z,29.65
2023-08-14T15:20:13.184Z,29.83
2023-08-14T15:22:39.856Z,30.37
2023-08-14T15:25:08.677Z,30.63
2023-08-14T15:27:35.162Z,30.25
2023-08-14T15:30:01.613Z,30.41
2023-08-14T15:32:28.026Z,30.43
2023-08-14T15:34:54.401Z,29.87
2023-08-14T15:37:21.073Z,30.21
2023-08-14T15:39:49.686Z,30.02
2023-08-14T15:42:17.248Z,30.57
2023-08-14T15:44:43.693Z,30.74
2023-08-14T15:47:10.067Z,31.06
2023-08-14T15:49:36.456Z,31.03
2023-08-14T15:52:03.883Z,30.98
2023-08-14T15:54:43.153Z,31.07
2023-08-14T15:57:16.867Z,31.31
2023-08-14T15:59:43.473Z,31.55
2023-08-14T16:02:10.606Z,31.33
2023-08-14T16:04:37.686Z,30.81
2023-08-14T16:07:04.109Z,31.19
2023-08-14T16:09:30.527Z,31.23
2023-08-14T16:11:57.728Z,31.22
2023-08-14T16:14:26.324Z,31.11
2023-08-14T16:16:55.912Z,30.82
2023-08-14T16:19:22.392Z,31.29
2023-08-14T16:21:48.818Z,31.06
2023-08-14T16:24:15.213Z,30.66
2023-08-14T16:26:41.791Z,30.49
2023-08-14T16:29:09.010Z,30.77
2023-08-14T16:31:35.601Z,30.96
2023-08-14T16:34:01.970Z,30.65
2023-08-14T16:36:28.421Z,29.95
2023-08-14T16:38:54.813Z,29.98
2023-08-14T16:41:21.216Z,29.89
2023-08-14T16:43:47.564Z,29.52
2023-08-14T16:46:13.963Z,29.72
2023-08-14T16:48:40.412Z,29.50
2023-08-14T16:51:07.859Z,29.38
2023-08-14T16:53:34.240Z,29.19
2023-08-14T16:56:00.607Z,29.38
2023-08-14T16:58:26.957Z,29.84
2023-08-14T17:00:54.133Z,29.85
2023-08-14T17:03:20.627Z,29.69
2023-08-14T17:05:47.097Z,29.97
2023-08-14T17:08:13.481Z,29.25
2023-08-14T17:10:39.939Z,29.74
2023-08-14T17:13:09.070Z,29.70
2023-08-14T17:15:40.245Z,29.20
2023-08-14T17:18:06.877Z,29.35
2023-08-14T17:20:33.560Z,29.56
2023-08-14T17:23:00.108Z,29.37
2023-08-14T17:25:26.448Z,29.06
2023-08-14T17:27:52.862Z,28.73
2023-08-14T17:30:19.368Z,28.59
2023-08-14T17:32:45.991Z,28.60
2023-08-14T17:35:12.741Z,29.00
2023-08-14T17:37:39.236Z,29.12
2023-08-14T17:40:06.511Z,29.38
2023-08-14T17:42:38.772Z,29.22
2023-08-14T17:45:06.370Z,29.32
2023-08-14T17:47:37.291Z,29.14
2023-08-14T17:50:04.814Z,29.27
2023-08-14T17:52:31.284Z,28.95
2023-08-14T17:54:57.732Z,29.08
2023-08-14T17:57:24.174Z,29.07
2023-08-14T17:59:50.645Z,29.04
2023-08-14T18:02:17.085Z,29.33
2023-08-14T18:04:43.568Z,28.78
2023-08-14T18:07:09.961Z,28.76
2023-08-14T18:09:36.537Z,28.55
2023-08-14T18:12:02.979Z,28.26
2023-08-14T18:14:29.460Z,28.23
2023-08-14T18:16:55.875Z,28.46
2023-08-14T18:19:29.529Z,28.21
2023-08-14T18:21:56.913Z,28.39
2023-08-14T18:24:23.332Z,28.45
2023-08-14T18:26:49.712Z,28.18
2023-08-14T18:29:17.865Z,28.23
2023-08-14T18:31:44.306Z,28.21
2023-08-14T18:34:10.780Z,27.67
2023-08-14T18:36:37.381Z,27.69
2023-08-14T18:39:04.481Z,27.62
2023-08-14T18:41:31.013Z,27.82
2023-08-14T18:43:57.387Z,27.72
2023-08-14T18:46:24.050Z,27.36
2023-08-14T18:48:50.565Z,27.41
2023-08-14T18:51:16.953Z,27.45
2023-08-14T18:53:43.762Z,27.19
2023-08-14T18:56:10.155Z,27.25
2023-08-14T18:58:36.582Z,27.27
2023-08-14T19:01:02.967Z,27.22
2023-08-14T19:03:29.925Z,26.95
2023-08-14T19:05:58.125Z,26.94
2023-08-14T19:08:25.162Z,26.93
2023-08-14T19:10:52.156Z,27.19
2023-08-14T19:13:18.533Z,26.97
2023-08-14T19:15:49.299Z,26.94
2023-08-14T19:18:16.762Z,26.96
2023-08-14T19:20:44.672Z,26.85
2023-08-14T19:23:11.771Z,26.76
2023-08-14T19:25:38.640Z,26.51
2023-08-14T19:28:19.657Z,26.45
2023-08-14T19:30:47.733Z,26.45
2023-08-14T19:33:14.454Z,26.53
2023-08-14T19:35:40.847Z,26.36
2023-08-14T19:38:07.210Z,26.11
2023-08-14T19:40:36.981Z,26.25
2023-08-14T19:43:03.552Z,26.30
2023-08-14T19:45:30.197Z,26.31
2023-08-14T19:47:56.662Z,26.21
2023-08-14T19:50:23.097Z,26.01
2023-08-14T19:52:49.562Z,25.98
2023-08-14T19:55:16.002Z,26.06
2023-08-14T19:57:42.363Z,25.88
2023-08-14T20:00:10.849Z,25.98
2023-08-14T20:02:37.285Z,25.83
2023-08-14T20:05:05.792Z,25.88
2023-08-14T20:07:32.574Z,25.89
2023-08-14T20:09:59.682Z,25.24
2023-08-14T20:12:26.101Z,25.10
2023-08-14T20:14:52.796Z,25.47
2023-08-14T20:17:20.501Z,25.49
2023-08-14T20:19:46.975Z,24.19
2023-08-14T20:22:13.333Z,23.09
2023-08-14T20:24:39.738Z,23.05
2023-08-14T20:27:08.467Z,22.83
2023-08-14T20:29:34.874Z,22.74
2023-08-14T20:32:01.307Z,22.76
2023-08-14T20:34:28.188Z,22.79
2023-08-14T20:36:54.716Z,22.74
2023-08-14T20:39:23.342Z,22.60
2023-08-14T20:41:49.841Z,22.58
2023-08-14T20:44:16.217Z,22.51
2023-08-14T20:46:42.649Z,22.33
2023-08-14T20:49:09.078Z,22.21
2023-08-14T20:51:35.585Z,22.32
2023-08-14T20:54:02.081Z,22.33
2023-08-14T20:56:28.456Z,22.39
2023-08-14T20:58:54.882Z,22.29
2023-08-14T21:01:21.721Z,22.22
2023-08-14T21:03:48.632Z,22.15
2023-08-14T21:06:17.228Z,22.10
2023-08-14T21:08:45.058Z,22.21
2023-08-14T21:11:15.086Z,22.09
2023-08-14T21:13:42.412Z,22.01
2023-08-14T21:16:09.325Z,22.18
2023-08-14T21:18:35.699Z,21.79
2023-08-14T21:21:02.049Z,21.66
2023-08-14T21:23:28.428Z,21.66
2023-08-14T21:25:56.072Z,21.71
2023-08-14T21:28:22.453Z,21.86
2023-08-14T21:30:57.574Z,21.81
2023-08-14T21:33:23.958Z,21.66
2023-08-14T21:35:51.038Z,21.60
2023-08-14T21:38:17.506Z,21.65
2023-08-14T21:40:43.927Z,21.54
2023-08-14T21:43:10.361Z,21.71
2023-08-14T21:45:37.184Z,21.62
2023-08-14T21:48:03.883Z,21.46
2023-08-14T21:50:30.288Z,21.60
2023-08-14T21:52:56.630Z,21.59
2023-08-14T21:55:22.976Z,21.46
2023-08-14T21:57:49.318Z,21.57
2023-08-14T22:00:15.656Z,21.52
2023-08-14T22:02:42.029Z,21.55
2023-08-14T22:05:08.530Z,21.60
2023-08-14T22:07:34.914Z,21.52
2023-08-14T22:10:01.388Z,21.59
2023-08-14T22:12:27.756Z,21.41
2023-08-14T22:14:54.138Z,21.35
2023-08-14T22:17:20.716Z,21.54
2023-08-14T22:19:47.268Z,21.46
2023-08-14T22:22:13.609Z,21.40
2023-08-14T22:24:41.573Z,21.39
2023-08-14T22:27:08.735Z,21.45
2023-08-14T22:29:35.113Z,21.44
2023-08-14T22:32:01.527Z,21.38
2023-08-14T22:34:27.914Z,21.44
2023-08-14T22:36:54.288Z,21.48
2023-08-14T22:39:20.680Z,21.37
2023-08-14T22:41:47.039Z,21.51
2023-08-14T22:44:13.383Z,21.24
2023-08-14T22:46:39.745Z,21.17
2023-08-14T22:49:06.103Z,21.29
2023-08-14T22:51:32.439Z,21.08
2023-08-14T22:53:58.866Z,21.24
2023-08-14T22:56:25.208Z,21.18
2023-08-14T22:58:51.621Z,21.41
2023-08-14T23:01:18.026Z,21.35
2023-08-14T23:03:44.453Z,21.43
2023-08-14T23:06:10.852Z,21.47
2023-08-14T23:08:37.266Z,21.61
2023-08-14T23:11:03.676Z,21.54
2023-08-14T23:13:30.109Z,21.62
2023-08-14T23:15:56.512Z,21.63
2023-08-14T23:18:22.925Z,21.50
2023-08-14T23:20:49.275Z,21.44
2023-08-14T23:23:15.657Z,21.23
2023-08-14T23:25:42.037Z,21.28
2023-08-14T23:28:08.454Z,21.43
2023-08-14T23:30:38.546Z,21.16
2023-08-14T23:33:05.387Z,21.28
2023-08-14T23:35:31.785Z,21.19
2023-08-14T23:37:58.301Z,21.19
2023-08-14T23:40:24.685Z,21.13
2023-08-14T23:42:51.024Z,20.97
2023-08-14T23:45:17.510Z,20.89
2023-08-14T23:47:43.874Z,21.04
2023-08-14T23:50:10.356Z,20.97
2023-08-14T23:52:36.727Z,20.84
2023-08-14T23:55:03.235Z,20.96
2023-08-14T23:57:29.601Z,20.97
2023-08-14T23:59:55.954Z,20.90
